Time;durP1;ratioP1;P1;durP2;ratioP2;P2;SDS_P1;SDS_P2;PMS_P1;PMS_P2;Temp;Humidity;BMP_temperature;BMP_pressure;BME280_temperature;BME280_humidity;BME280_pressure;Samples;Min_cycle;Max_cycle;Signal;HPM_P1;HPM_P2
2021/05/24 00:00:27;;;;;;;1.77;0.88;;;;;;;11.77;54.04;100020.44;5053294;28;20481;-55
2021/05/24 00:02:54;;;;;;;2.88;0.90;;;;;;;11.78;54.62;100022.91;5053559;28;20057;-51
2021/05/24 00:05:26;;;;;;;2.75;0.88;;;;;;;11.81;54.65;100037.34;5068086;28;20044;-51
2021/05/24 00:07:53;;;;;;;1.70;0.80;;;;;;;11.84;54.46;100020.72;5073423;28;20063;-53
2021/05/24 00:10:24;;;;;;;2.90;0.82;;;;;;;11.87;54.85;100024.84;5073156;28;20048;-52
2021/05/24 00:12:52;;;;;;;2.65;1.00;;;;;;;11.90;54.92;100021.41;5073533;28;20064;-52
2021/05/24 00:15:23;;;;;;;3.10;0.90;;;;;;;11.91;54.63;100011.91;5073802;28;20060;-51
2021/05/24 00:17:51;;;;;;;2.33;1.05;;;;;;;11.91;55.37;99998.75;5073442;28;20409;-55
2021/05/24 00:20:21;;;;;;;2.28;0.70;;;;;;;11.90;55.25;100011.06;5073465;28;20490;-54
2021/05/24 00:22:49;;;;;;;1.60;0.70;;;;;;;11.95;55.03;100004.50;5073104;28;20045;-53
2021/05/24 00:25:16;;;;;;;3.13;0.80;;;;;;;11.97;55.28;100004.97;5072912;28;20065;-52
2021/05/24 00:27:43;;;;;;;2.08;0.90;;;;;;;11.96;55.69;100009.72;5073214;28;20108;-54
2021/05/24 00:30:13;;;;;;;3.35;0.93;;;;;;;11.98;55.73;99995.44;5072430;28;20082;-50
2021/05/24 00:32:43;;;;;;;1.75;0.85;;;;;;;11.96;56.13;99989.38;5073240;28;20061;-55
2021/05/24 00:35:12;;;;;;;2.88;1.00;;;;;;;11.97;55.64;99991.84;5073239;28;20539;-55
2021/05/24 00:37:40;;;;;;;2.22;0.90;;;;;;;11.97;55.85;99989.03;5073303;28;20067;-53
2021/05/24 00:40:09;;;;;;;2.22;0.70;;;;;;;11.98;56.09;99976.72;5073192;28;20127;-52
2021/05/24 00:42:37;;;;;;;3.20;0.93;;;;;;;11.96;56.35;99976.22;5072806;28;20474;-50
2021/05/24 00:45:06;;;;;;;2.00;0.95;;;;;;;11.92;56.62;99972.47;5072912;28;20475;-55
2021/05/24 00:47:33;;;;;;;3.30;0.90;;;;;;;11.94;56.74;99970.16;5072732;28;20060;-52
2021/05/24 00:50:01;;;;;;;1.92;0.80;;;;;;;11.94;56.74;99963.75;5071900;28;20048;-53
2021/05/24 00:52:28;;;;;;;2.80;1.13;;;;;;;11.94;56.65;99961.78;5072686;28;20063;-53
2021/05/24 00:54:55;;;;;;;2.05;0.90;;;;;;;11.97;56.63;99965.91;5073624;28;20059;-52
2021/05/24 00:57:22;;;;;;;1.83;0.85;;;;;;;11.99;56.67;99946.84;5072335;28;20044;-51
2021/05/24 00:59:49;;;;;;;1.92;0.80;;;;;;;11.98;56.74;99945.19;5072009;28;20052;-51
2021/05/24 01:02:16;;;;;;;3.60;0.90;;;;;;;11.96;56.75;99955.88;5072739;28;20063;-54
2021/05/24 01:04:43;;;;;;;1.52;0.80;;;;;;;11.98;57.06;99939.59;5071602;28;20054;-51
2021/05/24 01:07:11;;;;;;;2.13;0.70;;;;;;;11.96;57.14;99933.53;5072302;28;20481;-51
2021/05/24 01:09:38;;;;;;;3.58;0.90;;;;;;;11.94;57.12;99933.06;5073020;28;20057;-50
2021/05/24 01:12:06;;;;;;;3.58;0.90;;;;;;;11.91;57.53;99926.19;5072729;28;20053;-52
2021/05/24 01:14:32;;;;;;;2.65;1.13;;;;;;;11.92;57.54;99924.22;5071685;28;20163;-51
2021/05/24 01:16:59;;;;;;;3.70;1.00;;;;;;;11.89;57.51;99924.91;5072418;28;20053;-50
2021/05/24 01:19:27;;;;;;;2.28;0.90;;;;;;;11.92;57.56;99924.22;5071996;28;20048;-56
2021/05/24 01:21:57;;;;;;;3.58;1.20;;;;;;;11.89;57.91;99922.09;5072111;28;20048;-56
2021/05/24 01:24:24;;;;;;;2.13;0.85;;;;;;;11.87;58.05;99913.22;5071675;28;20409;-54
2021/05/24 01:26:52;;;;;;;1.70;0.77;;;;;;;11.85;57.89;99910.75;5072186;28;20049;-55
2021/05/24 01:29:20;;;;;;;3.63;0.90;;;;;;;11.82;58.30;99905.84;5072489;28;20061;-54
2021/05/24 01:31:47;;;;;;;2.97;0.77;;;;;;;11.79;58.59;99912.09;5071528;28;20056;-54
2021/05/24 01:34:14;;;;;;;2.85;0.90;;;;;;;11.81;58.46;99918.16;5072508;28;20405;-49
2021/05/24 01:36:41;;;;;;;3.75;1.17;;;;;;;11.78;58.60;99908.50;5071901;28;20417;-52
2021/05/24 01:39:09;;;;;;;2.33;0.93;;;;;;;11.77;58.73;99906.03;5072605;28;20464;-50
2021/05/24 01:41:36;;;;;;;3.13;0.80;;;;;;;11.74;58.55;99909.53;5071773;28;20053;-52
2021/05/24 01:44:03;;;;;;;3.05;1.00;;;;;;;11.77;58.56;99906.03;5071987;28;20059;-53
2021/05/24 01:46:30;;;;;;;3.63;1.10;;;;;;;11.80;58.57;99891.44;5071995;28;20056;-50
2021/05/24 01:48:57;;;;;;;2.05;0.65;;;;;;;11.79;58.57;99890.59;5072049;28;20059;-51
2021/05/24 01:51:26;;;;;;;2.80;0.80;;;;;;;11.76;58.94;99885.69;5072310;28;20053;-51
2021/05/24 01:53:53;;;;;;;1.75;0.60;;;;;;;11.78;58.57;99902.13;5075443;28;20055;-52
2021/05/24 01:56:21;;;;;;;1.83;0.85;;;;;;;11.79;58.54;99885.00;5077022;28;20052;-51
2021/05/24 01:58:48;;;;;;;2.60;0.70;;;;;;;11.81;58.49;99886.66;5072010;28;20052;-49
2021/05/24 02:01:15;;;;;;;1.73;0.70;;;;;;;11.81;58.42;99903.41;5075019;28;20055;-55
2021/05/24 02:03:44;;;;;;;2.80;1.05;;;;;;;11.82;58.63;99889.09;5076173;28;20056;-51
2021/05/24 02:06:11;;;;;;;2.13;0.82;;;;;;;11.82;58.56;99877.94;5076417;28;20063;-54
2021/05/24 02:08:38;;;;;;;1.90;0.70;;;;;;;11.82;58.56;99896.66;5075516;28;20065;-51
2021/05/24 02:11:04;;;;;;;2.42;0.80;;;;;;;11.82;58.86;99896.66;5076037;28;20056;-52
2021/05/24 02:13:33;;;;;;;2.45;0.70;;;;;;;11.87;58.62;99902.88;5075909;28;20053;-54
2021/05/24 02:16:00;;;;;;;2.45;0.68;;;;;;;11.82;58.74;99897.47;5075525;28;20052;-55
2021/05/24 02:18:27;;;;;;;2.80;0.70;;;;;;;11.86;58.77;99889.25;5075545;28;20482;-51
2021/05/24 02:20:54;;;;;;;2.00;0.80;;;;;;;11.89;58.46;99881.06;5075203;28;20496;-49
2021/05/24 02:23:20;;;;;;;2.83;1.10;;;;;;;11.92;58.37;99879.56;5075767;28;20102;-52
2021/05/24 02:25:47;;;;;;;2.50;0.88;;;;;;;11.94;58.50;99874.47;5094999;28;20059;-54
2021/05/24 02:28:14;;;;;;;1.98;0.70;;;;;;;11.96;58.57;99872.94;5095420;28;20401;-51
2021/05/24 02:30:42;;;;;;;2.65;0.98;;;;;;;11.97;58.13;99871.00;5095471;28;20405;-53
2021/05/24 02:33:09;;;;;;;3.63;0.85;;;;;;;12.01;58.33;99865.53;5076540;28;20063;-51
2021/05/24 02:35:36;;;;;;;2.60;0.70;;;;;;;12.04;58.08;99854.53;5075612;28;20067;-52
2021/05/24 02:38:04;;;;;;;3.20;0.90;;;;;;;12.06;58.27;99870.94;5075574;28;20044;-50
2021/05/24 02:40:31;;;;;;;2.17;0.70;;;;;;;12.04;58.38;99865.69;5074849;28;20045;-52
2021/05/24 02:42:59;;;;;;;1.88;0.60;;;;;;;12.09;57.91;99853.50;5075890;28;20059;-50
2021/05/24 02:45:26;;;;;;;1.63;0.68;;;;;;;12.06;57.83;99855.00;5075279;28;20486;-51
2021/05/24 02:47:54;;;;;;;2.58;0.88;;;;;;;12.10;57.91;99855.16;5074876;28;20504;-50
2021/05/24 02:50:23;;;;;;;1.85;0.80;;;;;;;12.08;58.19;99851.88;5074854;28;20056;-51
2021/05/24 02:52:50;;;;;;;1.20;0.70;;;;;;;12.05;57.84;99836.59;5075344;28;20079;-54
2021/05/24 02:55:17;;;;;;;3.03;1.08;;;;;;;12.05;57.91;99844.97;5074260;28;20056;-56
2021/05/24 02:57:44;;;;;;;1.20;0.60;;;;;;;12.08;57.78;99835.13;5074753;28;20048;-54
2021/05/24 03:00:12;;;;;;;2.63;1.00;;;;;;;12.10;57.83;99844.78;5074372;28;20432;-54
2021/05/24 03:02:47;;;;;;;2.22;0.65;;;;;;;12.10;57.78;99842.00;5074761;28;20056;-52
2021/05/24 03:05:16;;;;;;;1.88;0.90;;;;;;;12.11;57.47;99834.44;5074828;28;20063;-51
2021/05/24 03:07:43;;;;;;;2.50;0.82;;;;;;;12.06;57.61;99843.03;5074290;28;20393;-52
2021/05/24 03:10:11;;;;;;;2.38;0.60;;;;;;;12.09;57.39;99829.19;5074211;28;20052;-53
2021/05/24 03:12:38;;;;;;;2.85;0.80;;;;;;;12.12;57.38;99824.91;5073740;28;20056;-51
2021/05/24 03:15:06;;;;;;;1.65;0.60;;;;;;;12.15;57.10;99824.22;5074538;28;20057;-52
2021/05/24 03:17:33;;;;;;;1.40;0.68;;;;;;;12.13;56.90;99815.38;5073974;28;20060;-51
2021/05/24 03:20:00;;;;;;;1.75;0.60;;;;;;;12.15;57.50;99816.66;5074409;28;20049;-52
2021/05/24 03:22:28;;;;;;;1.85;0.73;;;;;;;12.14;57.31;99822.59;5073939;28;20075;-51
2021/05/24 03:24:54;;;;;;;1.55;0.82;;;;;;;12.13;57.38;99813.38;5073898;28;20052;-55
2021/05/24 03:27:28;;;;;;;1.83;0.73;;;;;;;12.15;57.14;99825.03;5074245;28;20056;-52
2021/05/24 03:29:55;;;;;;;1.80;0.70;;;;;;;12.16;57.31;99832.25;5074511;28;20055;-53
2021/05/24 03:32:22;;;;;;;2.35;0.80;;;;;;;12.17;57.15;99827.50;5073695;28;20059;-53
2021/05/24 03:34:48;;;;;;;1.52;0.73;;;;;;;12.16;57.10;99832.25;5073427;28;20127;-53
2021/05/24 03:37:15;;;;;;;1.90;0.75;;;;;;;12.23;57.06;99819.72;5074039;28;20052;-54
2021/05/24 03:39:43;;;;;;;3.47;0.90;;;;;;;12.24;57.20;99819.41;5073632;28;20049;-53
2021/05/24 03:42:10;;;;;;;1.33;0.60;;;;;;;12.23;57.30;99828.91;5074243;28;20409;-52
2021/05/24 03:44:42;;;;;;;2.53;0.80;;;;;;;12.23;57.06;99822.53;5073289;28;20147;-53
2021/05/24 03:47:09;;;;;;;1.73;0.70;;;;;;;12.21;57.16;99822.06;5073189;28;20049;-51
2021/05/24 03:49:35;;;;;;;2.03;0.60;;;;;;;12.23;56.82;99820.53;5074016;28;20056;-53
2021/05/24 03:52:04;;;;;;;1.77;0.90;;;;;;;12.21;56.90;99824.84;5073373;28;20060;-49
2021/05/24 03:54:31;;;;;;;2.78;0.80;;;;;;;12.23;57.17;99809.38;5080072;28;20047;-50
2021/05/24 03:56:58;;;;;;;3.20;0.80;;;;;;;12.26;57.07;99813.44;5073789;28;20500;-51
2021/05/24 03:59:25;;;;;;;4.00;0.70;;;;;;;12.23;57.01;99823.34;5073515;28;20060;-53
2021/05/24 04:01:52;;;;;;;3.08;0.80;;;;;;;12.30;56.72;99804.03;5073640;28;20049;-50
2021/05/24 04:04:19;;;;;;;1.92;0.93;;;;;;;12.33;56.38;99808.16;5073722;28;20048;-51
2021/05/24 04:06:52;;;;;;;2.15;0.70;;;;;;;12.36;56.53;99802.66;5073174;28;20409;-53
2021/05/24 04:09:18;;;;;;;3.03;0.90;;;;;;;12.38;56.42;99800.34;5073169;28;20502;-51
2021/05/24 04:11:45;;;;;;;1.80;0.68;;;;;;;12.41;56.31;99801.66;5073427;28;20053;-51
2021/05/24 04:14:13;;;;;;;1.63;0.70;;;;;;;12.47;55.86;99800.25;5073671;28;20056;-50
2021/05/24 04:16:40;;;;;;;2.50;1.02;;;;;;;12.49;55.95;99792.34;5073184;28;20665;-53
2021/05/24 04:19:10;;;;;;;3.15;0.80;;;;;;;12.46;55.98;99795.84;5073161;28;20071;-54
2021/05/24 04:21:37;;;;;;;;;;;;;;;12.55;55.43;99796.56;5073409;28;20493;-56
2021/05/24 04:24:05;;;;;;;3.00;1.00;;;;;;;12.60;55.75;99789.97;5072222;28;19934;-54
2021/05/24 04:26:31;;;;;;;2.03;0.80;;;;;;;12.62;55.25;99792.41;5073145;28;20045;-56
2021/05/24 04:28:59;;;;;;;5.18;1.13;;;;;;;12.66;54.68;99801.72;5073120;28;20371;-49
2021/05/24 04:31:29;;;;;;;2.75;0.60;;;;;;;12.73;54.82;99783.25;5073048;28;20478;-52
2021/05/24 04:33:56;;;;;;;1.52;0.80;;;;;;;12.77;54.62;99775.81;5072944;28;20497;-54
2021/05/24 04:36:23;;;;;;;1.95;0.80;;;;;;;12.85;54.90;99782.47;5073313;28;20056;-53
2021/05/24 04:38:50;;;;;;;3.30;1.27;;;;;;;12.89;54.43;99780.59;5072923;28;20052;-50
2021/05/24 04:41:17;;;;;;;3.35;0.80;;;;;;;12.95;53.62;99772.78;5073037;28;20053;-53
2021/05/24 04:43:44;;;;;;;1.70;0.60;;;;;;;12.97;54.15;99767.66;5074526;28;20075;-51
2021/05/24 04:46:10;;;;;;;2.38;1.08;;;;;;;12.96;53.39;99777.22;5093020;28;20404;-54
2021/05/24 04:48:38;;;;;;;2.25;0.70;;;;;;;13.05;53.25;99771.53;5092764;28;20055;-55
2021/05/24 04:51:05;;;;;;;1.60;0.60;;;;;;;13.12;53.08;99771.75;5093279;28;20059;-52
2021/05/24 04:53:33;;;;;;;4.20;1.20;;;;;;;13.23;53.08;99778.53;5072755;28;20052;-52
2021/05/24 04:56:00;;;;;;;3.28;0.80;;;;;;;13.22;53.19;99773.28;5092476;28;20063;-54
2021/05/24 04:58:27;;;;;;;3.00;0.93;;;;;;;13.26;52.41;99772.22;5092848;28;20405;-51
2021/05/24 05:00:57;;;;;;;2.80;0.60;;;;;;;13.33;52.59;99772.50;5092775;28;20055;-53
2021/05/24 05:03:24;;;;;;;1.60;0.73;;;;;;;13.38;52.81;99775.06;5073224;28;20048;-53
2021/05/24 05:05:52;;;;;;;2.40;0.80;;;;;;;13.47;51.81;99772.13;5072904;28;20063;-55
2021/05/24 05:08:19;;;;;;;1.38;0.50;;;;;;;13.47;51.73;99755.34;5072518;28;20049;-53
2021/05/24 05:10:46;;;;;;;1.60;0.77;;;;;;;13.52;51.71;99757.91;5072242;28;20496;-54
2021/05/24 05:13:13;;;;;;;2.58;0.70;;;;;;;13.59;51.27;99771.31;5072397;28;20048;-51
2021/05/24 05:15:40;;;;;;;2.00;0.60;;;;;;;13.65;51.49;99758.72;5072409;28;20501;-54
2021/05/24 05:18:07;;;;;;;2.45;0.80;;;;;;;13.75;50.94;99757.38;5072913;28;20374;-49
2021/05/24 05:20:34;;;;;;;1.85;0.68;;;;;;;13.81;50.74;99762.38;5072176;28;20051;-52
2021/05/24 05:23:04;;;;;;;2.25;0.80;;;;;;;13.80;50.89;99768.34;5072492;28;20053;-52
2021/05/24 05:25:31;;;;;;;2.10;0.93;;;;;;;13.87;50.64;99771.38;5072299;28;20052;-55
2021/05/24 05:27:58;;;;;;;2.20;0.70;;;;;;;13.90;50.63;99761.44;5072602;28;20060;-54
2021/05/24 05:30:24;;;;;;;2.10;0.70;;;;;;;13.96;49.72;99774.00;5072229;28;20060;-52
2021/05/24 05:32:51;;;;;;;1.88;0.80;;;;;;;14.00;50.48;99766.53;5072220;28;20048;-50
2021/05/24 05:35:19;;;;;;;2.08;0.63;;;;;;;14.04;50.31;99767.47;5074145;28;20053;-52
2021/05/24 05:37:49;;;;;;;1.83;0.80;;;;;;;14.09;49.25;99752.38;5076169;28;20052;-55
2021/05/24 05:40:18;;;;;;;2.47;0.70;;;;;;;14.16;49.70;99764.63;5076322;28;20060;-53
2021/05/24 05:42:46;;;;;;;;;;;;;;;14.13;49.43;99759.75;5076259;28;20044;-51
2021/05/24 05:45:13;;;;;;;2.13;0.80;;;;;;;14.18;49.71;99779.09;5075768;28;19920;-53
2021/05/24 05:47:40;;;;;;;2.78;1.02;;;;;;;14.27;49.42;99764.13;5075871;28;20056;-50
2021/05/24 05:50:10;;;;;;;1.63;0.60;;;;;;;14.32;48.70;99750.69;5075828;28;20053;-54
2021/05/24 05:52:40;;;;;;;3.42;0.75;;;;;;;14.38;49.15;99754.00;5076044;28;20063;-50
2021/05/24 05:55:08;;;;;;;2.30;0.65;;;;;;;14.43;47.86;99756.56;5089564;28;20122;-51
2021/05/24 05:57:35;;;;;;;3.60;0.70;;;;;;;14.46;48.57;99755.03;5096221;28;20064;-52
2021/05/24 06:00:03;;;;;;;2.88;0.70;;;;;;;14.51;47.95;99752.78;5095810;28;20055;-52
2021/05/24 06:02:30;;;;;;;1.75;0.55;;;;;;;14.59;48.14;99770.63;5095331;28;20092;-55
2021/05/24 06:04:57;;;;;;;2.15;0.60;;;;;;;14.64;47.56;99759.19;5095709;28;20421;-54
2021/05/24 06:07:24;;;;;;;3.03;0.80;;;;;;;14.71;48.06;99747.34;5095774;28;20060;-56
2021/05/24 06:09:51;;;;;;;4.72;0.80;;;;;;;14.78;46.83;99742.75;5095998;28;20504;-54
2021/05/24 06:12:19;;;;;;;4.95;0.80;;;;;;;14.86;47.43;99740.09;5095800;28;20044;-53
2021/05/24 06:14:46;;;;;;;2.95;0.80;;;;;;;14.95;47.66;99726.69;5095387;28;20084;-54
2021/05/24 06:17:13;;;;;;;2.65;0.70;;;;;;;14.98;46.88;99737.22;5095752;28;20063;-56
2021/05/24 06:19:40;;;;;;;2.22;0.60;;;;;;;15.05;46.72;99728.97;5095398;28;20056;-52
2021/05/24 06:22:07;;;;;;;2.58;0.60;;;;;;;15.15;46.16;99730.41;5095401;28;20043;-52
2021/05/24 06:24:36;;;;;;;2.45;0.93;;;;;;;15.23;46.71;99733.03;5094947;28;20052;-54
2021/05/24 06:27:03;;;;;;;2.17;0.65;;;;;;;15.29;45.94;99735.56;5095607;28;20060;-52
2021/05/24 06:29:31;;;;;;;1.80;0.60;;;;;;;15.46;45.77;99728.75;5095361;28;20044;-50
2021/05/24 06:32:00;;;;;;;1.98;0.70;;;;;;;15.51;45.71;99722.84;5095470;28;20079;-50
2021/05/24 06:34:29;;;;;;;1.52;0.50;;;;;;;15.58;45.13;99712.59;5095769;28;20044;-54
2021/05/24 06:36:55;;;;;;;1.80;0.85;;;;;;;15.65;44.72;99720.34;5095813;28;20241;-54
2021/05/24 06:39:22;;;;;;;3.17;1.02;;;;;;;15.75;44.86;99708.56;5093936;28;20062;-54
2021/05/24 06:41:50;;;;;;;2.53;0.70;;;;;;;15.69;44.62;99707.22;5094800;28;20059;-54
2021/05/24 06:44:17;;;;;;;2.28;0.60;;;;;;;15.80;44.73;99699.84;5093261;28;20055;-53
2021/05/24 06:46:44;;;;;;;1.95;0.82;;;;;;;15.83;45.12;99693.50;5094009;28;20473;-55
2021/05/24 06:49:12;;;;;;;1.50;0.60;;;;;;;15.93;44.32;99689.28;5094312;28;20043;-53
2021/05/24 06:51:41;;;;;;;1.90;0.60;;;;;;;16.30;44.17;99688.00;5094850;28;20059;-52
2021/05/24 06:54:08;;;;;;;5.18;0.70;;;;;;;16.37;42.47;99688.94;5094168;28;20485;-54
2021/05/24 06:56:36;;;;;;;0.93;0.50;;;;;;;16.38;42.73;99684.16;5094701;28;20404;-54
2021/05/24 06:59:03;;;;;;;1.83;0.70;;;;;;;16.44;42.76;99683.47;5094289;28;20048;-52
2021/05/24 07:01:33;;;;;;;2.35;0.60;;;;;;;16.48;43.09;99689.13;5094684;28;20477;-54
2021/05/24 07:04:00;;;;;;;2.08;0.65;;;;;;;16.56;42.05;99671.19;5094218;28;20059;-51
2021/05/24 07:06:27;;;;;;;2.17;0.60;;;;;;;16.59;41.73;99686.53;5094946;28;20056;-51
2021/05/24 07:08:55;;;;;;;1.85;0.70;;;;;;;16.53;41.83;99674.78;5094813;28;20075;-54
2021/05/24 07:11:23;;;;;;;1.38;0.75;;;;;;;16.63;41.98;99668.53;5094650;28;20541;-52
2021/05/24 07:13:50;;;;;;;2.78;0.60;;;;;;;16.63;42.84;99674.16;5094235;28;20056;-54
2021/05/24 07:16:17;;;;;;;1.40;0.70;;;;;;;16.69;41.14;99671.00;5094113;28;20051;-51
2021/05/24 07:18:44;;;;;;;2.22;0.85;;;;;;;16.77;41.95;99673.56;5094348;28;20052;-49
2021/05/24 07:21:11;;;;;;;2.58;0.60;;;;;;;16.88;41.59;99675.78;5094540;28;20389;-55
2021/05/24 07:23:39;;;;;;;2.38;0.70;;;;;;;16.89;41.82;99677.41;5093743;28;20051;-50
2021/05/24 07:26:06;;;;;;;2.97;0.60;;;;;;;16.89;40.97;99683.84;5094638;28;20056;-54
2021/05/24 07:28:33;;;;;;;5.22;1.15;;;;;;;16.88;40.63;99673.78;5093988;28;20056;-53
2021/05/24 07:31:00;;;;;;;2.65;0.80;;;;;;;16.93;40.88;99672.66;5093501;28;20501;-53
2021/05/24 07:33:27;;;;;;;1.35;0.50;;;;;;;17.00;40.75;99682.00;5093365;28;20381;-54
2021/05/24 07:35:55;;;;;;;1.45;0.63;;;;;;;17.06;41.42;99668.44;5093863;28;20092;-52
2021/05/24 07:38:22;;;;;;;3.53;0.70;;;;;;;17.26;41.15;99677.59;5094204;28;20048;-53
2021/05/24 07:40:49;;;;;;;1.95;0.70;;;;;;;17.59;39.11;99653.50;5094290;28;20052;-50
2021/05/24 07:43:16;;;;;;;3.28;0.80;;;;;;;18.26;38.07;99655.53;5093973;28;20044;-56
2021/05/24 07:45:43;;;;;;;3.05;1.08;;;;;;;19.20;35.54;99645.91;5093497;28;20405;-53
2021/05/24 07:48:10;;;;;;;1.77;0.90;;;;;;;20.46;33.25;99645.19;5092695;28;20055;-55
2021/05/24 07:50:39;;;;;;;2.72;1.05;;;;;;;21.32;31.84;99638.72;5089566;28;20102;-54
2021/05/24 07:53:06;;;;;;;4.60;1.20;;;;;;;22.21;30.25;99665.94;5092215;28;20485;-52
2021/05/24 07:55:33;;;;;;;3.35;1.00;;;;;;;23.51;28.27;99643.00;5075822;28;20060;-56
2021/05/24 07:58:02;;;;;;;2.83;1.30;;;;;;;24.52;26.40;99634.81;5071082;28;20497;-54
2021/05/24 08:00:29;;;;;;;2.22;0.90;;;;;;;25.50;24.77;99640.47;5071805;28;20063;-56
2021/05/24 08:02:55;;;;;;;4.15;1.10;;;;;;;26.39;23.47;99616.19;5068335;28;20162;-53
2021/05/24 08:05:23;;;;;;;2.60;1.02;;;;;;;27.42;21.82;99634.84;5072604;28;20044;-56
2021/05/24 08:07:51;;;;;;;3.15;1.00;;;;;;;28.09;21.40;99616.97;5072171;28;20099;-57
2021/05/24 08:10:18;;;;;;;3.40;1.30;;;;;;;28.65;20.67;99613.59;5071786;28;20060;-52
2021/05/24 08:12:46;;;;;;;3.17;1.10;;;;;;;28.98;20.77;99607.56;5072044;28;20044;-53
2021/05/24 08:15:18;;;;;;;2.38;1.10;;;;;;;29.80;19.25;99606.72;5073163;28;20052;-56
2021/05/24 08:17:45;;;;;;;3.25;1.20;;;;;;;31.15;17.57;99596.72;5071613;28;20053;-56
2021/05/24 08:20:15;;;;;;;2.95;1.30;;;;;;;30.05;19.03;99593.44;5072608;28;20052;-55
2021/05/24 08:22:42;;;;;;;3.40;0.90;;;;;;;29.96;19.06;99605.69;5071406;28;20440;-53
2021/05/24 08:25:10;;;;;;;1.98;0.90;;;;;;;31.22;17.39;99595.59;5072093;28;20052;-53
2021/05/24 08:27:38;;;;;;;2.33;1.10;;;;;;;31.69;16.90;99613.72;5073266;28;20056;-55
2021/05/24 08:30:06;;;;;;;2.92;1.10;;;;;;;32.52;16.13;99599.06;5071576;28;20056;-55
2021/05/24 08:32:34;;;;;;;3.90;1.30;;;;;;;33.47;15.60;99603.28;5071870;28;20053;-56
2021/05/24 08:35:02;;;;;;;3.15;1.33;;;;;;;33.36;16.24;99605.94;5070961;28;20494;-57
2021/05/24 08:37:29;;;;;;;3.47;1.20;;;;;;;34.11;14.68;99598.19;5071075;28;20048;-56
2021/05/24 08:39:56;;;;;;;2.15;0.98;;;;;;;34.02;14.43;99604.06;5073237;28;20052;-54
2021/05/24 08:42:25;;;;;;;2.13;1.20;;;;;;;33.59;14.38;99589.88;5070767;28;20059;-56
2021/05/24 08:44:52;;;;;;;3.50;0.95;;;;;;;30.48;17.32;99606.13;5071994;28;20048;-55
2021/05/24 08:47:22;;;;;;;2.85;1.02;;;;;;;28.76;18.28;99618.94;5071497;28;20049;-51
2021/05/24 08:49:50;;;;;;;2.00;0.80;;;;;;;28.21;19.63;99604.75;5070824;28;20155;-53
2021/05/24 08:52:17;;;;;;;2.58;1.10;;;;;;;27.54;20.27;99611.22;5069625;28;20056;-54
2021/05/24 08:54:44;;;;;;;1.92;0.60;;;;;;;28.52;19.04;99615.66;5082781;28;20485;-56
2021/05/24 08:57:11;;;;;;;2.47;1.60;;;;;;;28.69;19.25;99591.34;5091028;28;20055;-53
2021/05/24 08:59:38;;;;;;;2.42;1.13;;;;;;;30.13;17.64;99597.63;5085454;28;20063;-56
2021/05/24 09:02:05;;;;;;;2.15;1.00;;;;;;;29.68;18.27;99584.59;5089191;28;20063;-55
2021/05/24 09:04:39;;;;;;;4.35;1.30;;;;;;;30.81;17.35;99586.25;5089827;28;20075;-55
2021/05/24 09:07:07;;;;;;;2.28;1.40;;;;;;;32.03;16.13;99592.38;5083285;28;20076;-53
2021/05/24 09:09:35;;;;;;;2.25;1.15;;;;;;;34.05;14.31;99568.41;5072576;28;20417;-56
2021/05/24 09:12:06;;;;;;;3.10;1.25;;;;;;;35.84;12.54;99569.28;5072196;28;20048;-53
2021/05/24 09:14:33;;;;;;;3.25;1.00;;;;;;;35.32;12.66;99584.50;5082497;28;20044;-56
2021/05/24 09:17:03;;;;;;;3.33;1.20;;;;;;;35.66;12.91;99576.22;5084945;28;20059;-57
2021/05/24 09:19:31;;;;;;;2.00;1.10;;;;;;;33.18;14.09;99580.94;5092837;28;20052;-56
2021/05/24 09:22:02;;;;;;;1.77;1.20;;;;;;;32.21;14.49;99576.31;5079883;28;20052;-55
2021/05/24 09:24:34;;;;;;;2.20;0.73;;;;;;;31.70;15.37;99569.22;5081438;28;20059;-56
2021/05/24 09:27:05;;;;;;;2.53;1.38;;;;;;;30.66;16.65;99554.44;5077993;28;20052;-56
2021/05/24 09:29:42;;;;;;;2.05;0.77;;;;;;;31.02;16.13;99541.44;5090555;28;20048;-55
2021/05/24 09:32:16;;;;;;;3.53;1.63;;;;;;;33.27;15.13;99539.66;5086615;28;20051;-54
2021/05/24 09:34:45;;;;;;;2.85;1.13;;;;;;;31.96;16.35;99556.03;5079877;28;20067;-54
2021/05/24 09:37:12;;;;;;;2.55;0.70;;;;;;;29.67;18.24;99537.06;5092242;28;20048;-56
2021/05/24 09:39:41;;;;;;;2.17;0.70;;;;;;;28.29;19.16;99551.69;5088953;28;20051;-55
2021/05/24 09:42:10;;;;;;;4.00;1.10;;;;;;;29.84;17.86;99529.88;5088552;28;20040;-56
2021/05/24 09:44:44;;;;;;;2.33;1.10;;;;;;;29.81;17.40;99545.16;5070560;28;20126;-57
2021/05/24 09:47:11;;;;;;;3.22;1.40;;;;;;;30.79;16.81;99524.78;5075695;28;20044;-56
2021/05/24 09:49:38;;;;;;;4.65;0.93;;;;;;;30.99;16.33;99530.88;5088531;28;20060;-56
2021/05/24 09:52:06;;;;;;;2.22;0.77;;;;;;;28.48;19.57;99531.88;5084630;28;20051;-49
2021/05/24 09:54:35;;;;;;;1.85;0.68;;;;;;;26.33;21.91;99533.91;5082652;28;20059;-56
2021/05/24 09:57:09;;;;;;;2.83;0.70;;;;;;;24.47;23.99;99540.53;5091290;28;20044;-57
2021/05/24 09:59:36;;;;;;;2.35;0.80;;;;;;;23.53;25.83;99534.59;5092546;28;20382;-56
2021/05/24 10:02:06;;;;;;;4.85;1.00;;;;;;;22.92;26.66;99532.44;5091270;28;20048;-56
2021/05/24 10:04:35;;;;;;;6.13;1.38;;;;;;;22.63;27.63;99521.34;5092249;28;20055;-52
2021/05/24 10:07:05;;;;;;;1.67;0.73;;;;;;;23.04;27.14;99517.72;5091165;28;20420;-52
2021/05/24 10:09:35;;;;;;;2.30;0.70;;;;;;;23.65;26.05;99511.28;5082890;28;20044;-57
2021/05/24 10:12:03;;;;;;;2.50;0.80;;;;;;;23.26;26.38;99504.06;5089526;28;20052;-56
2021/05/24 10:14:33;;;;;;;1.67;0.70;;;;;;;22.69;27.41;99514.78;5090734;28;20055;-55
2021/05/24 10:17:02;;;;;;;1.75;0.70;;;;;;;21.95;27.62;99517.00;5090563;28;20048;-54
2021/05/24 10:19:30;;;;;;;;;;;;;;;21.49;28.58;99510.38;5091795;28;20044;-55
2021/05/24 10:21:59;;;;;;;1.50;0.65;;;;;;;20.97;30.04;99509.34;5093369;28;19927;-64
2021/05/24 10:24:26;;;;;;;1.77;0.80;;;;;;;20.80;30.48;99505.34;5095962;28;20055;-64
2021/05/24 10:26:58;;;;;;;1.30;0.82;;;;;;;20.58;30.03;99502.56;5095261;28;20066;-64
2021/05/24 10:29:30;;;;;;;3.53;1.00;;;;;;;20.64;30.63;99506.63;5095196;28;20055;-64
2021/05/24 10:31:57;;;;;;;3.20;0.80;;;;;;;20.46;31.05;99502.97;5094795;28;20055;-64
2021/05/24 10:34:25;;;;;;;3.30;1.00;;;;;;;20.18;31.46;99504.59;5095315;28;20063;-64
2021/05/24 10:37:06;;;;;;;2.80;1.00;;;;;;;20.27;31.23;99490.84;5095448;28;20052;-64
2021/05/24 10:39:55;;;;;;;2.03;0.90;;;;;;;20.36;31.35;99496.09;5094438;28;20056;-65
2021/05/24 10:42:35;;;;;;;2.83;0.65;;;;;;;20.60;30.85;99500.16;5095113;28;20495;-64
2021/05/24 10:45:16;;;;;;;2.50;0.70;;;;;;;20.34;30.86;99500.53;5095472;28;20063;-63
2021/05/24 10:47:57;;;;;;;2.38;0.70;;;;;;;19.88;32.51;99502.13;5095581;28;20370;-64
2021/05/24 10:50:25;;;;;;;1.55;0.52;;;;;;;19.61;32.87;99504.47;5074427;28;20064;-63
2021/05/24 10:52:58;;;;;;;3.42;1.70;;;;;;;19.66;32.81;99496.41;5074799;28;20051;-63
2021/05/24 10:55:42;;;;;;;1.88;0.60;;;;;;;19.92;32.49;99516.28;5074243;28;20059;-64
2021/05/24 10:58:19;;;;;;;2.33;1.25;;;;;;;20.64;31.58;99500.94;5076954;28;20060;-63
2021/05/24 11:00:52;;;;;;;2.38;1.65;;;;;;;24.93;25.79;99481.94;5094297;28;20052;-63
2021/05/24 11:03:19;;;;;;;3.25;1.48;;;;;;;28.11;21.29;99477.03;5094897;28;20044;-64
2021/05/24 11:06:06;;;;;;;2.55;1.25;;;;;;;30.95;18.05;99472.69;5094583;28;20413;-64
2021/05/24 11:08:35;;;;;;;3.80;1.23;;;;;;;31.36;17.49;99470.44;5094559;28;20051;-64
2021/05/24 11:11:17;;;;;;;3.28;0.90;;;;;;;30.27;18.46;99453.41;5076563;28;20056;-63
2021/05/24 11:13:52;;;;;;;2.33;0.70;;;;;;;28.90;19.21;99463.66;5081955;28;20489;-63
2021/05/24 11:16:22;;;;;;;1.65;0.80;;;;;;;27.70;20.67;99453.78;5094704;28;20059;-63
2021/05/24 11:18:49;;;;;;;3.35;1.10;;;;;;;26.09;23.20;99463.97;5094337;28;20401;-64
2021/05/24 11:21:26;;;;;;;2.70;0.75;;;;;;;24.45;24.14;99463.28;5094348;28;20052;-63
2021/05/24 11:24:09;;;;;;;3.50;1.02;;;;;;;23.86;25.74;99471.16;5093649;28;20048;-63
2021/05/24 11:26:36;;;;;;;4.13;1.15;;;;;;;23.09;27.34;99475.44;5094526;28;20070;-64
2021/05/24 11:29:09;;;;;;;2.20;0.73;;;;;;;22.57;27.23;99491.81;5094207;28;20047;-63
2021/05/24 11:31:48;;;;;;;2.63;0.68;;;;;;;21.93;27.96;99488.25;5094333;28;20079;-63
2021/05/24 11:34:34;;;;;;;2.13;0.60;;;;;;;21.15;31.04;99507.28;5093404;28;20059;-63
2021/05/24 11:37:02;;;;;;;2.30;0.70;;;;;;;20.22;33.50;99536.50;5094255;28;20064;-63
2021/05/24 11:39:35;;;;;;;1.85;0.73;;;;;;;19.25;37.28;99535.41;5094003;28;20405;-64